SEGU/GYE METAR and TAF weather

Enter ICAO airport designator
Station Type Date Time Source
SEGU METAR 2020/01/24 03:00 UTC NOAA

SEGU 240300Z 24007KT 9999 FEW013 BKN026 BKN100 27/22 Q1012 NOSIG RMK A2991


Station Type Date Time Source
SEGU Decoded METAR 2020/01/24 03:00 UTC NOAA

Guayaquil / Simon Bolivar, Ecuador (SEGU) 02-09S 079-53W 9M
Jan 23, 2020 - 10:00 PM EST / 2020.01.24 0300 UTC
Wind: from the WSW (240 degrees) at 8 MPH (7 KT):0
Visibility: greater than 7 mile(s):0
Sky conditions: mostly cloudy
Temperature: 80 F (27 C)
Dew Point: 71 F (22 C)
Relative Humidity: 74%
Pressure (altimeter): 29.88 in. Hg (1012 hPa)
ob: SEGU 240300Z 24007KT 9999 FEW013 BKN026 BKN100 27/22 Q1012 NOSIG RMK A2991
cycle: 3

Station Type Date Time Source
SEGU TAF 2020/01/23 18:06 UTC NOAA

TAF TAF SEGU 231636Z 2318/2418 14005KT 9999 SCT020 SCT100
BECMG 2400/2401 21008KT
BECMG 2406/2407 BKN020 SCT100
FM241200 23004KT 9999 BKN020 SCT100 TX30/2319Z TN23/2411Z

Example: see airport list